createdAt,value
2023-11-29T00:00:19.965Z,9.40
2023-11-29T00:05:46.034Z,9.80
2023-11-29T00:10:49.723Z,14.40
2023-11-29T00:15:52.623Z,15.00
2023-11-29T00:20:55.428Z,11.30
2023-11-29T00:25:58.542Z,12.10
2023-11-29T00:31:01.454Z,9.00
2023-11-29T00:36:04.860Z,9.80
2023-11-29T00:41:07.727Z,15.10
2023-11-29T00:46:10.572Z,15.00
2023-11-29T00:51:13.777Z,14.80
2023-11-29T00:56:16.701Z,10.80
2023-11-29T01:01:19.711Z,11.70
2023-11-29T01:06:23.110Z,17.10
2023-11-29T01:11:26.041Z,14.70
2023-11-29T01:16:29.013Z,12.30
2023-11-29T01:21:35.656Z,11.90
2023-11-29T01:26:40.630Z,13.70
2023-11-29T01:31:43.578Z,15.50
2023-11-29T01:36:46.477Z,13.50
2023-11-29T01:41:49.308Z,12.90
2023-11-29T01:46:52.496Z,6.60
2023-11-29T01:51:55.392Z,16.40
2023-11-29T01:56:58.637Z,14.20
2023-11-29T02:02:02.039Z,13.40
2023-11-29T02:07:05.334Z,14.70
2023-11-29T02:12:08.856Z,8.20
2023-11-29T02:17:11.792Z,9.30
2023-11-29T02:22:15.522Z,14.80
2023-11-29T02:27:18.387Z,18.30
2023-11-29T02:32:21.696Z,10.90
2023-11-29T02:37:24.700Z,15.30
2023-11-29T02:42:27.610Z,6.60
2023-11-29T02:47:30.521Z,11.60
2023-11-29T02:52:33.519Z,14.00
2023-11-29T02:57:36.833Z,14.30
2023-11-29T03:02:39.732Z,12.60
2023-11-29T03:07:42.756Z,13.60
2023-11-29T03:12:45.648Z,12.10
2023-11-29T03:17:48.610Z,12.90
2023-11-29T03:22:51.557Z,13.60
2023-11-29T03:27:54.973Z,15.00
2023-11-29T03:32:57.954Z,15.30
2023-11-29T03:38:00.886Z,4.80
2023-11-29T03:43:03.928Z,7.30
2023-11-29T03:48:08.171Z,8.00
2023-11-29T03:53:11.251Z,15.80
2023-11-29T03:58:14.653Z,14.20
2023-11-29T04:03:17.614Z,13.30
2023-11-29T04:08:20.953Z,12.50
2023-11-29T04:13:23.876Z,7.70
2023-11-29T04:18:26.798Z,17.20
2023-11-29T04:23:29.708Z,15.30
2023-11-29T04:28:32.945Z,16.90
2023-11-29T04:33:36.361Z,16.20
2023-11-29T04:38:39.624Z,11.50
2023-11-29T04:43:42.945Z,13.10
2023-11-29T04:48:46.522Z,14.80
2023-11-29T04:53:49.565Z,10.30
2023-11-29T04:58:52.992Z,16.30
2023-11-29T05:03:56.233Z,15.90
2023-11-29T05:09:00.200Z,14.40
2023-11-29T05:14:04.147Z,13.40
2023-11-29T05:19:07.851Z,12.30
2023-11-29T05:24:11.499Z,14.10
2023-11-29T05:29:14.344Z,16.30
2023-11-29T05:34:17.306Z,9.80
2023-11-29T05:39:21.235Z,16.10
2023-11-29T05:44:24.160Z,14.90
2023-11-29T05:49:27.153Z,14.10
2023-11-29T05:54:30.561Z,11.80
2023-11-29T05:59:33.526Z,12.80
2023-11-29T06:04:36.504Z,16.00
2023-11-29T06:09:40.633Z,15.20
2023-11-29T06:14:43.858Z,14.70
2023-11-29T06:19:46.825Z,13.60
2023-11-29T06:24:49.640Z,13.20
2023-11-29T06:29:53.545Z,6.60
2023-11-29T06:34:57.927Z,15.90
2023-11-29T06:40:01.211Z,18.70
2023-11-29T06:45:04.952Z,14.60
2023-11-29T06:50:08.271Z,17.10
2023-11-29T06:55:11.587Z,17.90
2023-11-29T07:00:18.418Z,14.30
2023-11-29T07:05:21.900Z,13.10
2023-11-29T07:10:24.982Z,14.40
2023-11-29T07:15:27.856Z,16.70
2023-11-29T07:20:37.938Z,18.50
2023-11-29T07:25:46.602Z,21.10
2023-11-29T07:30:51.138Z,21.40
2023-11-29T07:35:54.277Z,21.00
2023-11-29T07:40:57.160Z,18.60
2023-11-29T07:46:00.233Z,18.80
2023-11-29T07:51:03.497Z,16.50
2023-11-29T07:56:07.523Z,19.40
2023-11-29T08:01:10.412Z,20.50
2023-11-29T08:06:14.277Z,20.30
2023-11-29T08:11:17.569Z,18.30
2023-11-29T08:16:20.962Z,18.50
2023-11-29T08:21:23.982Z,16.30
2023-11-29T08:26:27.451Z,17.10
2023-11-29T08:31:30.579Z,16.50
2023-11-29T08:36:33.358Z,15.90
2023-11-29T08:41:36.318Z,20.00
2023-11-29T08:46:39.290Z,16.90
2023-11-29T08:51:42.689Z,15.20
2023-11-29T08:56:45.614Z,15.80
2023-11-29T09:01:48.680Z,15.50
2023-11-29T09:06:51.759Z,14.70
2023-11-29T09:11:55.099Z,16.40
2023-11-29T09:16:58.145Z,16.40
2023-11-29T09:22:01.858Z,16.90
2023-11-29T09:27:06.029Z,16.70
2023-11-29T09:32:08.909Z,15.90
2023-11-29T09:37:11.830Z,15.90
2023-11-29T09:42:14.659Z,15.40
2023-11-29T09:47:18.528Z,14.30
2023-11-29T09:52:22.441Z,15.40
2023-11-29T09:57:25.309Z,14.60
2023-11-29T10:02:28.903Z,15.10
2023-11-29T10:07:32.793Z,14.10
2023-11-29T10:12:42.038Z,16.00
2023-11-29T10:17:46.382Z,16.50
2023-11-29T10:22:50.708Z,14.60
2023-11-29T10:27:53.704Z,15.40
2023-11-29T10:32:56.957Z,15.70
2023-11-29T10:38:04.957Z,15.90
2023-11-29T10:43:10.905Z,16.40
2023-11-29T10:48:17.792Z,16.80
2023-11-29T10:58:24.836Z,17.00
2023-11-29T11:03:44.882Z,17.60
2023-11-29T11:08:48.024Z,19.00
2023-11-29T11:13:52.224Z,19.20
2023-11-29T11:18:56.533Z,19.90
2023-11-29T11:24:01.825Z,17.90
2023-11-29T11:29:05.818Z,21.10
2023-11-29T11:34:08.719Z,19.80
2023-11-29T11:39:11.627Z,18.50
2023-11-29T11:44:14.738Z,18.80
2023-11-29T11:49:17.519Z,18.00
2023-11-29T11:54:21.264Z,17.70
2023-11-29T11:59:24.290Z,17.60
2023-11-29T12:04:28.050Z,16.20
2023-11-29T12:09:31.303Z,17.90
2023-11-29T12:14:34.168Z,16.90
2023-11-29T12:19:37.314Z,19.40
2023-11-29T12:24:47.813Z,18.60
2023-11-29T12:29:52.935Z,19.00
2023-11-29T12:34:57.806Z,19.20
2023-11-29T12:40:00.621Z,19.00
2023-11-29T12:45:03.860Z,20.10
2023-11-29T12:50:07.466Z,19.70
2023-11-29T12:55:10.466Z,20.40
2023-11-29T13:00:14.645Z,20.20
2023-11-29T13:05:17.694Z,21.00
2023-11-29T13:10:20.541Z,20.80
2023-11-29T13:15:23.514Z,20.00
2023-11-29T13:20:27.710Z,25.90
2023-11-29T13:25:31.810Z,22.30
2023-11-29T13:30:34.673Z,23.00
2023-11-29T13:35:37.628Z,22.50
2023-11-29T13:40:41.684Z,21.60
2023-11-29T13:45:44.790Z,22.80
2023-11-29T13:50:47.830Z,23.30
2023-11-29T13:55:50.834Z,20.30
2023-11-29T14:00:53.744Z,17.60
2023-11-29T14:05:59.373Z,15.40
2023-11-29T14:11:02.258Z,18.30
2023-11-29T14:16:05.427Z,9.70
2023-11-29T14:21:09.177Z,13.10
2023-11-29T14:26:13.097Z,15.70
2023-11-29T14:31:16.827Z,17.70
2023-11-29T14:36:19.704Z,20.20
2023-11-29T14:41:28.736Z,13.50
2023-11-29T14:46:31.864Z,17.50
2023-11-29T14:51:35.072Z,18.60
2023-11-29T14:56:38.797Z,23.40
2023-11-29T15:01:41.935Z,21.20
2023-11-29T15:06:45.492Z,16.90
2023-11-29T15:11:53.920Z,11.80
2023-11-29T15:16:56.978Z,12.90
2023-11-29T15:22:00.975Z,8.40
2023-11-29T15:27:04.642Z,11.40
2023-11-29T15:32:08.854Z,11.40
2023-11-29T15:37:11.757Z,15.50
2023-11-29T15:42:14.774Z,13.20
2023-11-29T15:47:17.770Z,7.20
2023-11-29T15:52:20.880Z,10.30
2023-11-29T15:57:23.781Z,10.50
2023-11-29T16:02:26.761Z,8.70
2023-11-29T16:07:30.633Z,8.30
2023-11-29T16:12:34.044Z,12.90
2023-11-29T16:17:36.990Z,13.10
2023-11-29T16:22:40.258Z,9.40
2023-11-29T16:27:43.844Z,9.00
2023-11-29T16:32:47.134Z,10.40
2023-11-29T16:37:50.304Z,12.40
2023-11-29T16:42:53.200Z,13.20
2023-11-29T16:47:56.292Z,10.10
2023-11-29T16:52:59.317Z,12.10
2023-11-29T16:58:02.223Z,9.90
2023-11-29T17:03:16.250Z,6.60
2023-11-29T17:08:19.945Z,13.40
2023-11-29T17:13:22.811Z,11.80
2023-11-29T17:18:25.822Z,10.40
2023-11-29T17:23:29.539Z,15.90
2023-11-29T17:28:32.966Z,17.60
2023-11-29T17:33:36.009Z,7.40
2023-11-29T17:38:39.302Z,10.90
2023-11-29T17:43:42.208Z,8.40
2023-11-29T17:48:45.199Z,4.70
2023-11-29T17:53:48.220Z,10.50
2023-11-29T17:58:51.104Z,13.60
2023-11-29T18:03:54.032Z,8.10
2023-11-29T18:08:58.815Z,14.10
2023-11-29T18:14:01.701Z,11.30
2023-11-29T18:19:04.979Z,11.70
2023-11-29T18:24:08.556Z,11.40
2023-11-29T18:29:11.464Z,11.90
2023-11-29T18:34:14.811Z,8.60
2023-11-29T18:39:20.539Z,9.30
2023-11-29T18:44:23.489Z,10.60
2023-11-29T18:49:27.627Z,10.50
2023-11-29T18:54:30.632Z,9.90
2023-11-29T18:59:35.085Z,11.90
2023-11-29T19:04:38.166Z,13.50
2023-11-29T19:09:41.703Z,7.40
2023-11-29T19:14:44.625Z,7.70
2023-11-29T19:19:47.501Z,9.50
2023-11-29T19:24:50.422Z,12.50
2023-11-29T19:29:53.272Z,6.10
2023-11-29T19:34:56.325Z,8.10
2023-11-29T19:39:59.260Z,10.50
2023-11-29T19:45:02.022Z,10.90
2023-11-29T19:50:05.238Z,11.30
2023-11-29T19:55:08.616Z,10.20
2023-11-29T20:00:12.013Z,11.30
2023-11-29T20:05:15.079Z,13.10
2023-11-29T20:10:18.039Z,12.50
2023-11-29T20:15:22.232Z,14.10
2023-11-29T20:20:35.330Z,11.80
2023-11-29T20:25:44.311Z,7.90
2023-11-29T20:30:48.295Z,11.80
2023-11-29T20:35:53.193Z,9.00
2023-11-29T20:40:56.243Z,10.60
2023-11-29T20:45:59.096Z,10.10
2023-11-29T20:51:02.419Z,8.60
2023-11-29T20:56:06.030Z,10.20
2023-11-29T21:01:09.250Z,10.80
2023-11-29T21:06:12.173Z,13.20
2023-11-29T21:11:19.157Z,9.20
2023-11-29T21:16:22.194Z,4.90
2023-11-29T21:21:25.301Z,8.10
2023-11-29T21:26:28.293Z,6.30
2023-11-29T21:31:33.218Z,11.50
2023-11-29T21:36:38.081Z,7.80
2023-11-29T21:41:41.148Z,12.90
2023-11-29T21:46:46.449Z,7.90
2023-11-29T21:51:49.362Z,12.70
2023-11-29T21:56:52.228Z,8.60
2023-11-29T22:01:55.242Z,12.90
2023-11-29T22:06:58.271Z,16.50
2023-11-29T22:12:01.213Z,11.90
2023-11-29T22:17:04.189Z,11.60
2023-11-29T22:22:07.110Z,8.80
2023-11-29T22:27:10.902Z,7.80
2023-11-29T22:32:14.010Z,6.20
2023-11-29T22:37:17.035Z,7.80
2023-11-29T22:42:20.002Z,6.50
2023-11-29T22:47:23.054Z,10.70
2023-11-29T22:52:25.945Z,6.90
2023-11-29T22:57:28.885Z,7.40
2023-11-29T23:02:31.981Z,8.90
2023-11-29T23:07:34.961Z,10.80
2023-11-29T23:12:37.876Z,8.30
2023-11-29T23:17:40.845Z,12.00
2023-11-29T23:22:43.781Z,4.90
2023-11-29T23:27:47.096Z,11.60
2023-11-29T23:32:50.177Z,9.00
2023-11-29T23:37:53.102Z,12.10
2023-11-29T23:42:55.913Z,10.20
2023-11-29T23:47:58.939Z,10.30
2023-11-29T23:53:02.065Z,4.00
2023-11-29T23:58:05.145Z,8.20
